Time;durP1;ratioP1;P1;durP2;ratioP2;P2;SDS_P1;SDS_P2;PMS_P1;PMS_P2;Temp;Humidity;BMP_temperature;BMP_pressure;BME280_temperature;BME280_humidity;BME280_pressure;Samples;Min_cycle;Max_cycle;Signal;HPM_P1;HPM_P2
2023/07/19 00:01:04;;;;;;;;;;;;;;;27.22;54.03;99563.75;4444108;32;34181;-75
2023/07/19 00:03:32;;;;;;;;;;;;;;;27.09;54.18;99567.66;4454053;32;33652;-75
2023/07/19 00:06:00;;;;;;;;;;;;;;;27.17;53.94;99570.97;4444191;32;34906;-75
2023/07/19 00:08:27;;;;;;;;;;;;;;;27.18;53.60;99562.09;4449106;32;34658;-75
2023/07/19 00:10:55;;;;;;;;;;;;;;;27.06;53.65;99555.34;4441247;32;34094;-75
2023/07/19 00:13:23;;;;;;;;;;;;;;;26.99;53.73;99536.94;4448518;32;32839;-75
2023/07/19 00:15:50;;;;;;;;;;;;;;;27.07;53.34;99534.94;4446681;32;34029;-75
2023/07/19 00:18:17;;;;;;;;;;;;;;;27.15;52.91;99537.38;4443617;32;35054;-74
2023/07/19 00:20:44;;;;;;;;;;;;;;;27.06;53.12;99536.72;4440692;32;34481;-75
2023/07/19 00:23:12;;;;;;;;;;;;;;;27.11;52.82;99535.72;4449908;32;33065;-75
2023/07/19 00:25:39;;;;;;;;;;;;;;;27.20;52.31;99528.37;4444241;32;33904;-75
2023/07/19 00:28:06;;;;;;;;;;;;;;;27.16;51.99;99516.06;4443089;32;33756;-75
2023/07/19 00:30:34;;;;;;;;;;;;;;;27.12;52.06;99514.41;4446548;32;34281;-75
2023/07/19 00:33:03;;;;;;;;;;;;;;;26.96;52.51;99497.13;4453676;32;33356;-75
2023/07/19 00:35:32;;;;;;;;;;;;;;;26.96;52.71;99498.00;4446812;32;34060;-75
2023/07/19 00:38:00;;;;;;;;;;;;;;;27.02;52.48;99507.59;4443875;32;34023;-75
2023/07/19 00:40:27;;;;;;;;;;;;;;;26.88;52.83;99516.81;4450401;32;34136;-75
2023/07/19 00:42:57;;;;;;;;;;;;;;;26.83;53.28;99512.53;4447935;32;33958;-75
2023/07/19 00:45:25;;;;;;;;;;;;;;;26.97;52.81;99501.53;4446968;32;34570;-75
2023/07/19 00:47:53;;;;;;;;;;;;;;;26.86;53.11;99499.16;4451098;32;34543;-75
2023/07/19 00:50:21;;;;;;;;;;;;;;;26.77;53.42;99505.63;4432921;32;34183;-75
2023/07/19 00:52:49;;;;;;;;;;;;;;;26.77;53.67;99502.94;4446836;32;33159;-75
2023/07/19 00:55:17;;;;;;;;;;;;;;;26.73;53.92;99500.41;4434299;32;34739;-75
2023/07/19 00:57:44;;;;;;;;;;;;;;;26.67;53.99;99488.16;4449702;32;34057;-75
2023/07/19 01:00:11;;;;;;;;;;;;;;;26.60;53.63;99478.62;4431089;32;33780;-76
2023/07/19 01:02:39;;;;;;;;;;;;;;;26.55;53.80;99480.47;4453703;32;33405;-75
2023/07/19 01:05:07;;;;;;;;;;;;;;;26.52;53.70;99464.59;4436561;32;34636;-75
2023/07/19 01:07:34;;;;;;;;;;;;;;;26.53;53.43;99469.00;4438973;32;34907;-74
2023/07/19 01:10:02;;;;;;;;;;;;;;;26.44;53.68;99483.37;4453392;32;34083;-75
2023/07/19 01:12:29;;;;;;;;;;;;;;;26.48;53.64;99491.25;4453339;32;33500;-75
2023/07/19 01:14:56;;;;;;;;;;;;;;;26.63;53.33;99494.44;4453442;32;33946;-75
2023/07/19 01:17:24;;;;;;;;;;;;;;;26.72;53.31;99496.88;4453226;32;34312;-75
2023/07/19 01:19:51;;;;;;;;;;;;;;;26.52;54.09;99496.47;4453950;32;34197;-75
2023/07/19 01:22:18;;;;;;;;;;;;;;;26.46;54.39;99498.41;4458234;32;33461;-74
2023/07/19 01:24:46;;;;;;;;;;;;;;;26.27;55.03;99495.31;4443196;32;34031;-75
2023/07/19 01:27:14;;;;;;;;;;;;;;;26.24;55.00;99491.84;4442845;32;34154;-75
2023/07/19 01:29:49;;;;;;;;;;;;;;;26.04;55.38;99482.59;4450344;32;34583;-75
2023/07/19 01:32:17;;;;;;;;;;;;;;;25.99;55.57;99487.12;4457259;32;34221;-75
2023/07/19 01:34:44;;;;;;;;;;;;;;;26.04;55.30;99487.91;4445046;32;34286;-75
2023/07/19 01:37:13;;;;;;;;;;;;;;;25.97;55.60;99477.47;4457648;32;34270;-75
2023/07/19 01:39:40;;;;;;;;;;;;;;;26.03;55.57;99478.19;4456386;32;34216;-75
2023/07/19 01:42:07;;;;;;;;;;;;;;;25.89;56.11;99482.91;4453664;32;34133;-75
2023/07/19 01:44:35;;;;;;;;;;;;;;;25.92;55.94;99469.59;4437986;32;33963;-75
2023/07/19 01:47:02;;;;;;;;;;;;;;;25.93;55.97;99470.50;4451143;32;33856;-75
2023/07/19 01:49:29;;;;;;;;;;;;;;;25.87;56.22;99476.78;4455015;32;33790;-75
2023/07/19 01:51:57;;;;;;;;;;;;;;;26.03;55.68;99470.22;4445135;32;33600;-76
2023/07/19 01:54:24;;;;;;;;;;;;;;;26.00;55.67;99467.66;4442443;32;33781;-74
2023/07/19 01:56:51;;;;;;;;;;;;;;;26.06;55.41;99482.56;4456444;32;34201;-75
2023/07/19 01:59:19;;;;;;;;;;;;;;;26.13;55.06;99477.97;4439299;32;33825;-75
2023/07/19 02:01:46;;;;;;;;;;;;;;;26.11;54.96;99469.16;4450079;32;33140;-75
2023/07/19 02:04:14;;;;;;;;;;;;;;;26.15;54.58;99465.53;4434138;32;33908;-75
2023/07/19 02:06:41;;;;;;;;;;;;;;;26.04;54.80;99471.97;4454519;32;34283;-75
2023/07/19 02:09:08;;;;;;;;;;;;;;;26.05;54.56;99481.66;4455981;32;34245;-75
2023/07/19 02:11:36;;;;;;;;;;;;;;;26.01;54.74;99480.00;4451670;32;33907;-75
2023/07/19 02:14:03;;;;;;;;;;;;;;;25.99;55.03;99487.12;4442068;32;33945;-75
2023/07/19 02:16:30;;;;;;;;;;;;;;;25.85;55.65;99489.19;4455027;32;34089;-75
2023/07/19 02:18:58;;;;;;;;;;;;;;;25.89;55.53;99480.25;4443528;32;34485;-74
2023/07/19 02:21:25;;;;;;;;;;;;;;;25.84;55.59;99488.31;4445617;32;32858;-75
2023/07/19 02:23:53;;;;;;;;;;;;;;;25.84;55.75;99487.44;4447990;32;34673;-75
2023/07/19 02:26:21;;;;;;;;;;;;;;;25.85;55.79;99507.78;4442766;32;34565;-75
2023/07/19 02:28:48;;;;;;;;;;;;;;;25.69;56.26;99516.06;4444273;32;34912;-75
2023/07/19 02:31:15;;;;;;;;;;;;;;;25.73;56.50;99518.63;4444433;32;33184;-75
2023/07/19 02:33:43;;;;;;;;;;;;;;;25.69;56.48;99516.06;4441691;32;34878;-75
2023/07/19 02:36:13;;;;;;;;;;;;;;;25.65;56.59;99508.19;4443291;32;33633;-75
2023/07/19 02:38:41;;;;;;;;;;;;;;;25.63;57.01;99516.22;4453768;32;33984;-75
2023/07/19 02:41:10;;;;;;;;;;;;;;;25.72;56.65;99514.25;4445243;32;32834;-75
2023/07/19 02:43:37;;;;;;;;;;;;;;;25.76;55.92;99505.31;4425729;32;32488;-75
2023/07/19 02:46:04;;;;;;;;;;;;;;;25.73;55.92;99498.31;4446236;32;34941;-74
2023/07/19 02:48:32;;;;;;;;;;;;;;;25.75;55.59;99506.22;4444899;32;34147;-75
2023/07/19 02:50:59;;;;;;;;;;;;;;;25.80;55.28;99493.72;4441377;32;32874;-75
2023/07/19 02:53:26;;;;;;;;;;;;;;;25.73;55.57;99502.72;4454221;32;33939;-75
2023/07/19 02:55:54;;;;;;;;;;;;;;;25.83;55.25;99498.97;4444632;32;34731;-75
2023/07/19 02:58:21;;;;;;;;;;;;;;;25.88;55.05;99515.66;4453431;32;33572;-74
2023/07/19 03:00:49;;;;;;;;;;;;;;;25.64;55.61;99502.03;4449317;32;33484;-75
2023/07/19 03:03:16;;;;;;;;;;;;;;;25.69;55.68;99486.91;4439082;32;34549;-75
2023/07/19 03:05:44;;;;;;;;;;;;;;;25.36;57.26;99482.28;4439096;32;34295;-75
2023/07/19 03:08:12;;;;;;;;;;;;;;;25.70;56.36;99485.97;4447164;32;34150;-75
2023/07/19 03:10:39;;;;;;;;;;;;;;;25.55;56.39;99483.66;4454725;32;34026;-75
2023/07/19 03:13:07;;;;;;;;;;;;;;;25.64;56.00;99485.25;4448931;32;34845;-75
2023/07/19 03:15:35;;;;;;;;;;;;;;;25.73;55.72;99493.00;4437815;32;33624;-75
2023/07/19 03:18:03;;;;;;;;;;;;;;;25.76;55.56;99497.37;4439229;32;34297;-75
2023/07/19 03:20:30;;;;;;;;;;;;;;;25.77;55.80;99496.44;4438837;32;32984;-75
2023/07/19 03:23:00;;;;;;;;;;;;;;;25.51;56.27;99492.59;4438567;32;35066;-75
2023/07/19 03:25:28;;;;;;;;;;;;;;;25.45;56.45;99492.72;4439044;32;34214;-75
2023/07/19 03:27:56;;;;;;;;;;;;;;;25.74;55.39;99485.91;4424914;32;34332;-75
2023/07/19 03:30:25;;;;;;;;;;;;;;;25.73;55.38;99494.75;4442010;32;33009;-76
2023/07/19 03:32:52;;;;;;;;;;;;;;;25.95;54.65;99488.09;4438736;32;34009;-75
2023/07/19 03:35:20;;;;;;;;;;;;;;;26.03;54.00;99485.28;4438945;32;31819;-75
2023/07/19 03:37:49;;;;;;;;;;;;;;;25.64;55.08;99486.12;4438711;32;35136;-75
2023/07/19 03:40:17;;;;;;;;;;;;;;;25.57;55.41;99486.28;4448012;32;34211;-75
2023/07/19 03:42:45;;;;;;;;;;;;;;;25.70;55.05;99480.66;4451595;32;34078;-75
2023/07/19 03:45:13;;;;;;;;;;;;;;;25.82;54.71;99476.00;4453561;32;35326;-75
2023/07/19 03:47:40;;;;;;;;;;;;;;;25.99;54.25;99476.50;4454161;32;33962;-74
2023/07/19 03:50:08;;;;;;;;;;;;;;;25.86;54.48;99475.91;4446809;32;33977;-74
2023/07/19 03:52:35;;;;;;;;;;;;;;;25.81;54.33;99483.09;4440242;32;34399;-74
2023/07/19 03:55:04;;;;;;;;;;;;;;;25.74;54.60;99480.59;4447084;32;33810;-75
2023/07/19 03:57:31;;;;;;;;;;;;;;;25.91;54.18;99475.81;4439382;32;34190;-75
2023/07/19 03:59:59;;;;;;;;;;;;;;;25.90;54.37;99482.87;4449664;32;33477;-75
2023/07/19 04:02:26;;;;;;;;;;;;;;;25.75;54.72;99485.00;4439649;32;34859;-75
2023/07/19 04:04:54;;;;;;;;;;;;;;;25.75;55.11;99488.53;4439453;32;34264;-74
2023/07/19 04:07:21;;;;;;;;;;;;;;;25.81;54.88;99498.16;4438522;32;33960;-75
2023/07/19 04:09:50;;;;;;;;;;;;;;;25.61;55.70;99496.81;4441149;32;33450;-74
2023/07/19 04:12:18;;;;;;;;;;;;;;;25.67;55.61;99495.78;4442477;32;33560;-75
2023/07/19 04:14:45;;;;;;;;;;;;;;;25.58;56.00;99501.31;4440065;32;33761;-75
2023/07/19 04:17:12;;;;;;;;;;;;;;;25.31;56.78;99496.53;4427521;32;34815;-74
2023/07/19 04:19:40;;;;;;;;;;;;;;;25.43;56.43;99499.84;4453888;32;33779;-75
2023/07/19 04:22:07;;;;;;;;;;;;;;;25.54;55.92;99503.13;4453629;32;33985;-75
2023/07/19 04:24:34;;;;;;;;;;;;;;;25.69;55.42;99512.53;4438117;32;35074;-75
2023/07/19 04:27:02;;;;;;;;;;;;;;;25.61;55.74;99507.41;4443452;32;34646;-74
2023/07/19 04:29:29;;;;;;;;;;;;;;;25.44;56.40;99504.22;4441060;32;33584;-75
2023/07/19 04:31:57;;;;;;;;;;;;;;;25.61;55.86;99506.53;4431523;32;34031;-75
2023/07/19 04:34:24;;;;;;;;;;;;;;;25.57;56.07;99516.31;4438220;32;35048;-75
2023/07/19 04:36:52;;;;;;;;;;;;;;;25.63;56.00;99516.22;4438368;32;34105;-75
2023/07/19 04:39:19;;;;;;;;;;;;;;;25.44;56.74;99514.81;4424738;32;32909;-76
2023/07/19 04:41:46;;;;;;;;;;;;;;;25.46;56.60;99518.34;4440196;32;33952;-78
2023/07/19 04:44:14;;;;;;;;;;;;;;;25.51;56.49;99522.63;4446927;32;34107;-77
2023/07/19 04:46:41;;;;;;;;;;;;;;;25.39;56.95;99522.03;4453168;32;34209;-76
2023/07/19 04:49:08;;;;;;;;;;;;;;;25.17;57.74;99522.41;4451962;32;33135;-77
2023/07/19 04:51:38;;;;;;;;;;;;;;;25.15;58.05;99513.63;4440192;32;34117;-77
2023/07/19 04:54:05;;;;;;;;;;;;;;;25.21;58.29;99518.78;4440709;32;33944;-76
2023/07/19 04:56:33;;;;;;;;;;;;;;;25.47;57.53;99520.06;4443557;32;34822;-77
2023/07/19 04:59:00;;;;;;;;;;;;;;;25.58;57.28;99520.72;4446751;32;34087;-74
2023/07/19 05:01:28;;;;;;;;;;;;;;;25.49;57.93;99523.56;4447166;32;34189;-77
2023/07/19 05:03:56;;;;;;;;;;;;;;;25.63;57.71;99525.94;4444317;32;34194;-77
2023/07/19 05:06:23;;;;;;;;;;;;;;;25.74;57.63;99525.72;4431974;32;34165;-76
2023/07/19 05:08:51;;;;;;;;;;;;;;;25.81;57.65;99511.41;4453193;32;33525;-76
2023/07/19 05:11:19;;;;;;;;;;;;;;;25.91;57.38;99510.31;4453538;32;34058;-76
2023/07/19 05:13:47;;;;;;;;;;;;;;;25.96;57.26;99516.41;4453308;32;34140;-77
2023/07/19 05:16:17;;;;;;;;;;;;;;;25.98;56.97;99517.25;4453307;32;34163;-76
2023/07/19 05:18:45;;;;;;;;;;;;;;;26.05;56.85;99515.31;4444799;32;33949;-77
2023/07/19 05:21:13;;;;;;;;;;;;;;;26.08;56.80;99513.47;4441695;32;34747;-77
2023/07/19 05:23:41;;;;;;;;;;;;;;;26.20;56.67;99508.78;4430366;32;32492;-76
2023/07/19 05:26:09;;;;;;;;;;;;;;;26.42;55.73;99495.84;4439221;32;34064;-75
2023/07/19 05:28:36;;;;;;;;;;;;;;;26.34;55.88;99498.69;4453152;32;33114;-75
2023/07/19 05:31:05;;;;;;;;;;;;;;;26.53;56.04;99508.84;4451927;32;34969;-74
2023/07/19 05:33:33;;;;;;;;;;;;;;;26.74;55.66;99502.16;4437601;32;34037;-75
2023/07/19 05:36:00;;;;;;;;;;;;;;;26.90;55.12;99515.91;4451328;32;33656;-74
2023/07/19 05:38:28;;;;;;;;;;;;;;;26.99;55.30;99507.69;4450741;32;32907;-74
2023/07/19 05:41:02;;;;;;;;;;;;;;;27.13;53.88;99510.81;4437409;32;33962;-74
2023/07/19 05:43:29;;;;;;;;;;;;;;;27.13;53.75;99505.50;4437831;32;34954;-74
2023/07/19 05:46:04;;;;;;;;;;;;;;;27.10;54.12;99510.94;4450157;32;34380;-74
2023/07/19 05:48:31;;;;;;;;;;;;;;;27.04;54.26;99521.72;4437525;32;33109;-75
2023/07/19 05:50:59;;;;;;;;;;;;;;;27.19;53.89;99533.72;4443188;32;34851;-75
2023/07/19 05:53:26;;;;;;;;;;;;;;;27.08;54.37;99531.34;4452359;32;34048;-75
2023/07/19 05:55:54;;;;;;;;;;;;;;;27.04;54.95;99524.38;4449737;32;33990;-75
2023/07/19 05:58:21;;;;;;;;;;;;;;;27.07;54.97;99533.12;4452151;32;33523;-75
2023/07/19 06:00:48;;;;;;;;;;;;;;;27.17;54.79;99533.75;4452446;32;34760;-75
2023/07/19 06:03:16;;;;;;;;;;;;;;;27.33;54.18;99533.34;4452026;32;34191;-75
2023/07/19 06:05:44;;;;;;;;;;;;;;;27.25;54.52;99539.78;4449977;32;35153;-75
2023/07/19 06:08:11;;;;;;;;;;;;;;;27.35;54.37;99542.16;4441112;32;32141;-75
2023/07/19 06:10:51;;;;;;;;;;;;;;;27.46;54.28;99529.44;4454562;32;34367;-75
2023/07/19 06:13:19;;;;;;;;;;;;;;;27.58;54.23;99529.09;4454644;32;34259;-75
2023/07/19 06:15:46;;;;;;;;;;;;;;;27.73;53.64;99533.06;4453375;32;34314;-75
2023/07/19 06:18:14;;;;;;;;;;;;;;;27.79;54.02;99537.34;4439279;32;33581;-75
2023/07/19 06:20:41;;;;;;;;;;;;;;;27.90;53.60;99540.59;4439150;32;35073;-75
2023/07/19 06:23:08;;;;;;;;;;;;;;;27.97;53.20;99531.50;4425443;32;34060;-75
2023/07/19 06:25:36;;;;;;;;;;;;;;;28.10;52.72;99531.13;4450288;32;34963;-75
2023/07/19 06:28:03;;;;;;;;;;;;;;;28.19;52.23;99528.16;4446459;32;33292;-75
2023/07/19 06:30:31;;;;;;;;;;;;;;;28.03;52.82;99533.97;4439950;32;33975;-75
2023/07/19 06:32:58;;;;;;;;;;;;;;;28.23;52.39;99533.34;4445971;32;34040;-75
2023/07/19 06:35:28;;;;;;;;;;;;;;;28.28;52.73;99530.53;4441037;32;34278;-75
2023/07/19 06:37:55;;;;;;;;;;;;;;;28.38;52.55;99520.47;4448307;32;33563;-75
2023/07/19 06:40:22;;;;;;;;;;;;;;;28.42;52.29;99514.97;4446076;32;34036;-75
2023/07/19 06:42:49;;;;;;;;;;;;;;;28.55;51.74;99519.91;4448108;32;34261;-75
2023/07/19 06:45:18;;;;;;;;;;;;;;;28.62;51.70;99514.31;4447107;32;34492;-75
2023/07/19 06:47:45;;;;;;;;;;;;;;;28.62;51.59;99508.13;4443335;32;33879;-75
2023/07/19 06:50:13;;;;;;;;;;;;;;;28.70;51.18;99505.19;4444804;32;33844;-75
2023/07/19 06:52:40;;;;;;;;;;;;;;;28.74;51.82;99512.16;4450012;32;33632;-75
2023/07/19 06:55:08;;;;;;;;;;;;;;;28.65;52.03;99524.03;4425584;32;34428;-75
2023/07/19 06:57:35;;;;;;;;;;;;;;;29.06;51.16;99524.38;4446041;32;33525;-75
2023/07/19 07:00:03;;;;;;;;;;;;;;;28.98;51.10;99521.13;4427913;32;33796;-75
2023/07/19 07:02:32;;;;;;;;;;;;;;;29.04;50.80;99510.22;4451776;32;33660;-75
2023/07/19 07:05:00;;;;;;;;;;;;;;;28.95;51.06;99505.22;4454266;32;34858;-75
2023/07/19 07:07:27;;;;;;;;;;;;;;;29.13;50.83;99504.59;4451050;32;34001;-75
2023/07/19 07:09:54;;;;;;;;;;;;;;;29.17;50.24;99498.22;4439073;32;34910;-75
2023/07/19 07:12:22;;;;;;;;;;;;;;;29.04;51.09;99502.22;4442826;32;33690;-75
2023/07/19 07:14:49;;;;;;;;;;;;;;;29.03;50.89;99500.47;4440413;32;33972;-75
2023/07/19 07:17:17;;;;;;;;;;;;;;;29.20;51.05;99495.44;4433269;32;31564;-75
2023/07/19 07:19:45;;;;;;;;;;;;;;;29.37;50.96;99491.28;4454538;32;33673;-75
2023/07/19 07:22:12;;;;;;;;;;;;;;;29.45;50.66;99497.19;4454389;32;33950;-75
2023/07/19 07:24:40;;;;;;;;;;;;;;;29.47;50.39;99508.66;4454325;32;34918;-75
2023/07/19 07:27:07;;;;;;;;;;;;;;;29.53;50.33;99507.56;4449282;32;34200;-75
2023/07/19 07:29:35;;;;;;;;;;;;;;;29.57;50.13;99504.75;4454292;32;34901;-75
2023/07/19 07:32:02;;;;;;;;;;;;;;;29.71;49.71;99516.66;4454447;32;34898;-75
2023/07/19 07:34:30;;;;;;;;;;;;;;;29.87;49.35;99515.19;4454386;32;34784;-75
2023/07/19 07:36:57;;;;;;;;;;;;;;;29.94;48.64;99506.03;4451814;32;33528;-75
2023/07/19 07:39:24;;;;;;;;;;;;;;;30.05;48.13;99510.06;4448523;32;34031;-75
2023/07/19 07:41:51;;;;;;;;;;;;;;;30.16;48.07;99502.47;4454260;32;33977;-75
2023/07/19 07:44:19;;;;;;;;;;;;;;;30.31;47.21;99512.56;4453931;32;34264;-75
2023/07/19 07:46:47;;;;;;;;;;;;;;;30.20;47.85;99514.78;4440018;32;33180;-75
2023/07/19 07:49:14;;;;;;;;;;;;;;;30.36;47.34;99521.25;4439053;32;34379;-75
2023/07/19 07:51:42;;;;;;;;;;;;;;;30.53;46.45;99506.34;4426584;32;34136;-75
2023/07/19 07:54:09;;;;;;;;;;;;;;;30.47;45.92;99509.28;4450587;32;34115;-75
2023/07/19 07:56:36;;;;;;;;;;;;;;;30.31;45.21;99517.91;4454019;32;33390;-75
2023/07/19 07:59:03;;;;;;;;;;;;;;;30.43;44.98;99523.69;4441579;32;34196;-75
2023/07/19 08:01:31;;;;;;;;;;;;;;;30.34;45.47;99523.13;4439450;32;34175;-75
2023/07/19 08:03:59;;;;;;;;;;;;;;;30.39;45.88;99514.94;4434268;32;34717;-77
2023/07/19 08:06:26;;;;;;;;;;;;;;;30.37;46.22;99501.62;4430131;32;31619;-74
2023/07/19 08:08:54;;;;;;;;;;;;;;;30.40;46.56;99502.44;4448033;32;33990;-76
2023/07/19 08:11:21;;;;;;;;;;;;;;;30.42;47.66;99497.87;4448733;32;35009;-74
2023/07/19 08:13:49;;;;;;;;;;;;;;;30.36;47.67;99499.00;4440916;32;32703;-74
2023/07/19 08:16:17;;;;;;;;;;;;;;;30.51;46.71;99497.50;4446767;32;34021;-74
2023/07/19 08:18:45;;;;;;;;;;;;;;;30.35;47.10;99497.28;4445788;32;34938;-73
2023/07/19 08:21:12;;;;;;;;;;;;;;;30.59;45.91;99484.69;4451561;32;34003;-73
2023/07/19 08:24:00;;;;;;;;;;;;;;;30.41;46.18;99491.69;4437428;32;33667;-74
2023/07/19 08:26:27;;;;;;;;;;;;;;;30.50;46.35;99490.41;4437135;32;34121;-74
2023/07/19 08:28:54;;;;;;;;;;;;;;;30.57;45.94;99491.91;4448793;32;33949;-74
2023/07/19 08:31:23;;;;;;;;;;;;;;;30.51;46.13;99487.69;4451563;32;33841;-74
2023/07/19 08:33:52;;;;;;;;;;;;;;;30.60;46.82;99491.78;4451223;32;34444;-74
2023/07/19 08:36:19;;;;;;;;;;;;;;;31.15;45.37;99489.38;4440333;32;34049;-74
2023/07/19 08:38:46;;;;;;;;;;;;;;;31.39;44.63;99494.56;4441483;32;33807;-74
2023/07/19 08:41:15;;;;;;;;;;;;;;;31.75;44.69;99496.47;4440776;32;35048;-74
2023/07/19 08:43:42;;;;;;;;;;;;;;;31.98;44.22;99497.19;4436763;32;34727;-74
2023/07/19 08:46:11;;;;;;;;;;;;;;;32.40;42.09;99498.75;4434381;32;33508;-73
2023/07/19 08:48:39;;;;;;;;;;;;;;;32.52;41.31;99503.47;4432206;32;34340;-74
2023/07/19 08:51:06;;;;;;;;;;;;;;;32.70;41.54;99505.28;4433282;32;33932;-74
2023/07/19 08:53:34;;;;;;;;;;;;;;;32.89;40.81;99505.16;4443380;32;34249;-74
2023/07/19 08:56:01;;;;;;;;;;;;;;;32.87;40.66;99511.56;4444900;32;33125;-74
2023/07/19 08:58:28;;;;;;;;;;;;;;;33.01;40.84;99509.03;4449333;32;34079;-74
2023/07/19 09:00:55;;;;;;;;;;;;;;;33.13;40.27;99512.03;4432914;32;32806;-75
2023/07/19 09:03:23;;;;;;;;;;;;;;;33.02;40.49;99516.13;4439891;32;34201;-75
2023/07/19 09:05:52;;;;;;;;;;;;;;;33.06;40.26;99516.84;4437822;32;33077;-73
2023/07/19 09:08:20;;;;;;;;;;;;;;;32.88;40.50;99518.69;4445441;32;32872;-74
2023/07/19 09:10:48;;;;;;;;;;;;;;;32.85;41.09;99508.09;4436701;32;33882;-76
2023/07/19 09:13:19;;;;;;;;;;;;;;;33.03;40.00;99512.50;4436322;32;34535;-75
2023/07/19 09:15:47;;;;;;;;;;;;;;;33.24;39.37;99505.13;4432665;32;33378;-75
2023/07/19 09:18:15;;;;;;;;;;;;;;;33.21;39.44;99502.62;4434441;32;34587;-75
2023/07/19 09:20:42;;;;;;;;;;;;;;;33.28;39.35;99506.72;4443988;32;34026;-76
2023/07/19 09:23:10;;;;;;;;;;;;;;;33.14;39.35;99503.03;4444121;32;34086;-76
2023/07/19 09:25:51;;;;;;;;;;;;;;;33.20;38.98;99497.34;4440948;32;33433;-75
2023/07/19 09:28:22;;;;;;;;;;;;;;;33.07;39.12;99508.72;4442381;32;33383;-75
2023/07/19 09:30:53;;;;;;;;;;;;;;;33.21;39.49;99504.47;4432641;32;33816;-75
2023/07/19 09:33:20;;;;;;;;;;;;;;;33.21;37.90;99499.94;4435968;32;34039;-75
2023/07/19 09:35:52;;;;;;;;;;;;;;;33.12;38.52;99495.06;4435720;32;33715;-75
2023/07/19 09:38:21;;;;;;;;;;;;;;;33.08;38.26;99488.09;4439161;32;34227;-75
2023/07/19 09:40:50;;;;;;;;;;;;;;;33.07;39.42;99492.63;4447415;32;35045;-75
2023/07/19 09:43:17;;;;;;;;;;;;;;;33.13;38.83;99493.25;4452128;32;32657;-75
2023/07/19 09:45:45;;;;;;;;;;;;;;;32.87;39.43;99498.16;4438685;32;32055;-76
2023/07/19 09:48:14;;;;;;;;;;;;;;;32.83;39.47;99491.22;4440594;32;34889;-76
2023/07/19 09:50:42;;;;;;;;;;;;;;;32.77;39.82;99496.91;4454207;32;34176;-75
2023/07/19 09:53:10;;;;;;;;;;;;;;;32.87;39.76;99506.19;4445573;32;35493;-76
2023/07/19 09:55:37;;;;;;;;;;;;;;;32.76;39.83;99498.72;4450013;32;33391;-76
2023/07/19 09:58:05;;;;;;;;;;;;;;;32.93;39.35;99495.12;4443369;32;33948;-75
2023/07/19 10:00:32;;;;;;;;;;;;;;;32.71;39.82;99496.25;4435564;32;34112;-75
2023/07/19 10:03:00;;;;;;;;;;;;;;;32.89;39.61;99493.56;4441589;32;34621;-75
2023/07/19 10:05:28;;;;;;;;;;;;;;;32.79;39.19;99486.97;4448461;32;33777;-75
2023/07/19 10:08:05;;;;;;;;;;;;;;;32.95;38.68;99487.88;4444437;32;34257;-75
2023/07/19 10:10:42;;;;;;;;;;;;;;;33.26;38.18;99486.28;4444236;32;34798;-75
2023/07/19 10:13:09;;;;;;;;;;;;;;;33.27;38.15;99479.97;4453186;32;34533;-75
2023/07/19 10:15:37;;;;;;;;;;;;;;;33.55;37.47;99476.63;4434642;32;33304;-75
2023/07/19 10:18:11;;;;;;;;;;;;;;;33.62;37.24;99469.09;4430505;32;34859;-74
2023/07/19 10:20:40;;;;;;;;;;;;;;;33.52;37.07;99470.56;4444561;32;33573;-78
2023/07/19 10:23:08;;;;;;;;;;;;;;;33.53;37.27;99467.78;4444615;32;34753;-78
2023/07/19 10:25:38;;;;;;;;;;;;;;;33.54;36.69;99468.66;4447382;32;33390;-77
2023/07/19 10:28:07;;;;;;;;;;;;;;;33.67;36.90;99456.34;4441847;32;34544;-79
2023/07/19 10:30:42;;;;;;;;;;;;;;;33.52;35.41;99460.69;4448188;32;33843;-78
2023/07/19 10:33:10;;;;;;;;;;;;;;;33.55;35.53;99459.66;4434969;32;33558;-76
2023/07/19 10:35:39;;;;;;;;;;;;;;;33.43;35.46;99451.31;4444571;32;33180;-76
2023/07/19 10:38:32;;;;;;;;;;;;;;;33.43;35.98;99448.62;4446088;32;35147;-77
2023/07/19 10:41:00;;;;;;;;;;;;;;;33.58;35.47;99432.62;4431669;32;34176;-77
2023/07/19 10:43:32;;;;;;;;;;;;;;;33.48;35.60;99430.47;4452718;32;34281;-77
2023/07/19 10:46:14;;;;;;;;;;;;;;;33.60;35.22;99420.84;4447440;32;33529;-79
2023/07/19 10:48:41;;;;;;;;;;;;;;;33.50;35.17;99401.69;4447568;32;33923;-78
2023/07/19 10:51:09;;;;;;;;;;;;;;;33.49;35.99;99408.03;4453823;32;34802;-77
2023/07/19 10:53:40;;;;;;;;;;;;;;;33.95;35.62;99403.69;4442728;32;34751;-78
2023/07/19 10:56:07;;;;;;;;;;;;;;;34.13;33.85;99407.13;4443776;32;33116;-78
2023/07/19 10:58:34;;;;;;;;;;;;;;;34.21;33.13;99407.56;4444402;32;34416;-76
2023/07/19 11:01:04;;;;;;;;;;;;;;;34.30;33.06;99411.53;4443271;32;33806;-80
2023/07/19 11:03:31;;;;;;;;;;;;;;;34.39;33.44;99425.28;4449831;32;35125;-79
2023/07/19 11:05:59;;;;;;;;;;;;;;;34.58;32.11;99419.66;4441831;32;33463;-78
2023/07/19 11:08:27;;;;;;;;;;;;;;;34.73;32.47;99427.78;4447021;32;33961;-79
2023/07/19 11:10:55;;;;;;;;;;;;;;;34.84;31.72;99436.06;4448303;32;34241;-77
2023/07/19 11:13:25;;;;;;;;;;;;;;;35.01;31.85;99421.56;4452778;32;34396;-78
2023/07/19 11:15:55;;;;;;;;;;;;;;;35.08;31.92;99422.94;4442777;32;33215;-78
2023/07/19 11:18:23;;;;;;;;;;;;;;;34.99;32.42;99413.59;4447136;32;34192;-78
2023/07/19 11:20:50;;;;;;;;;;;;;;;35.17;31.92;99410.72;4448233;32;34268;-77
2023/07/19 11:23:18;;;;;;;;;;;;;;;35.28;30.91;99413.59;4441654;32;34131;-75
2023/07/19 11:25:46;;;;;;;;;;;;;;;35.38;31.95;99412.03;4439050;32;33816;-78
2023/07/19 11:28:13;;;;;;;;;;;;;;;35.53;30.75;99417.44;4451605;32;34883;-77
2023/07/19 11:30:41;;;;;;;;;;;;;;;35.73;30.32;99419.69;4445942;32;34764;-76
2023/07/19 11:33:09;;;;;;;;;;;;;;;35.73;30.15;99417.00;4450121;32;34086;-75
2023/07/19 11:35:37;;;;;;;;;;;;;;;35.69;30.78;99406.53;4440084;32;32758;-75
2023/07/19 11:38:05;;;;;;;;;;;;;;;35.92;30.89;99403.19;4438552;32;33697;-76
2023/07/19 11:40:32;;;;;;;;;;;;;;;35.99;30.41;99403.66;4441076;32;34363;-76
2023/07/19 11:42:59;;;;;;;;;;;;;;;36.17;29.27;99402.41;4449313;32;34168;-75
2023/07/19 11:45:27;;;;;;;;;;;;;;;36.11;29.68;99397.41;4430430;32;33563;-76
2023/07/19 11:47:58;;;;;;;;;;;;;;;36.06;29.75;99393.31;4444583;32;34130;-75
2023/07/19 11:50:26;;;;;;;;;;;;;;;36.12;29.20;99392.88;4453166;32;34209;-78
2023/07/19 11:52:55;;;;;;;;;;;;;;;36.10;29.36;99401.06;4452277;32;34467;-75
2023/07/19 11:55:23;;;;;;;;;;;;;;;35.95;28.12;99402.09;4453639;32;33352;-75
2023/07/19 11:57:53;;;;;;;;;;;;;;;35.86;28.49;99403.59;4454365;32;33858;-75
2023/07/19 12:00:22;;;;;;;;;;;;;;;35.69;29.39;99402.00;4451364;32;34214;-75
2023/07/19 12:02:50;;;;;;;;;;;;;;;35.72;29.10;99395.56;4453586;32;33978;-75
2023/07/19 12:05:18;;;;;;;;;;;;;;;35.64;29.97;99401.44;4438580;32;33484;-75
2023/07/19 12:07:46;;;;;;;;;;;;;;;35.60;29.68;99386.41;4452914;32;34192;-75
2023/07/19 12:10:13;;;;;;;;;;;;;;;35.33;30.71;99381.88;4450151;32;34244;-75
2023/07/19 12:12:41;;;;;;;;;;;;;;;35.22;30.30;99370.94;4445216;32;33936;-75
2023/07/19 12:15:09;;;;;;;;;;;;;;;35.02;30.48;99373.03;4446162;32;34077;-75
2023/07/19 12:17:37;;;;;;;;;;;;;;;35.42;30.08;99367.78;4453278;32;34599;-75
2023/07/19 12:20:05;;;;;;;;;;;;;;;35.60;30.57;99364.84;4453522;32;34693;-75
2023/07/19 12:22:34;;;;;;;;;;;;;;;35.69;30.55;99358.03;4437576;32;34798;-75
2023/07/19 12:25:02;;;;;;;;;;;;;;;35.54;30.70;99354.50;4448250;32;32866;-74
2023/07/19 12:27:29;;;;;;;;;;;;;;;35.77;29.68;99334.12;4446890;32;34068;-75
2023/07/19 12:29:58;;;;;;;;;;;;;;;35.95;28.84;99334.72;4429220;32;32341;-75
2023/07/19 12:32:32;;;;;;;;;;;;;;;35.97;29.13;99330.13;4436879;32;32451;-75
2023/07/19 12:35:01;;;;;;;;;;;;;;;36.07;28.35;99320.41;4451366;32;34238;-75
2023/07/19 12:37:33;;;;;;;;;;;;;;;36.08;27.26;99322.13;4425737;32;33849;-74
2023/07/19 12:40:00;;;;;;;;;;;;;;;36.19;26.58;99324.13;4437664;32;34970;-75
2023/07/19 12:42:29;;;;;;;;;;;;;;;36.28;26.91;99319.91;4428066;32;32498;-74
2023/07/19 12:44:56;;;;;;;;;;;;;;;36.41;27.70;99318.09;4433593;32;33125;-77
2023/07/19 12:47:23;;;;;;;;;;;;;;;36.32;28.56;99313.38;4448900;32;34144;-76
2023/07/19 12:49:51;;;;;;;;;;;;;;;36.40;28.51;99301.06;4437737;32;34645;-75
2023/07/19 12:52:19;;;;;;;;;;;;;;;36.46;28.68;99305.16;4438092;32;34287;-76